<?xml version="1.0" encoding="UTF-8"?>
<gpx xmlns="http://www.topografix.com/GPX/1/1" xmlns:xsi="http://www.w3.org/2001/XMLSchema-instance" version="1.1" xsi:schemaLocation="http://www.topografix.com/GPX/1/1 http://www.topografix.com/GPX/1/1/gpx.xsd">
  <metadata>
    <name>Multisport National Championships Festival 2026 - Draft Legal Sprint Aquabike</name>
  </metadata>
  <trk>
    <name>Multisport National Championships Festival 2026 - Draft Legal Sprint Aquabike</name>
    <trkseg>
      <trkpt lat="42.399111" lon="-86.187746">
        <ele>189.021292</ele>
        <time>2026-05-14T13:30:00.000Z</time>
      </trkpt>
      <trkpt lat="42.398096" lon="-86.187728">
        <ele>189.020355</ele>
        <time>2026-05-14T13:30:11.000Z</time>
      </trkpt>
      <trkpt lat="42.397296" lon="-86.187707">
        <ele>189.013887</ele>
        <time>2026-05-14T13:30:20.000Z</time>
      </trkpt>
      <trkpt lat="42.39692" lon="-86.187711">
        <ele>189.010738</ele>
        <time>2026-05-14T13:30:24.000Z</time>
      </trkpt>
      <trkpt lat="42.396008" lon="-86.187687">
        <ele>188.867254</ele>
        <time>2026-05-14T13:30:34.000Z</time>
      </trkpt>
      <trkpt lat="42.39568" lon="-86.187677">
        <ele>188.753903</ele>
        <time>2026-05-14T13:30:38.000Z</time>
      </trkpt>
      <trkpt lat="42.395244" lon="-86.187683">
        <ele>188.601021</ele>
        <time>2026-05-14T13:30:43.000Z</time>
      </trkpt>
      <trkpt lat="42.394444" lon="-86.187666">
        <ele>188.38017</ele>
        <time>2026-05-14T13:30:52.000Z</time>
      </trkpt>
      <trkpt lat="42.394372" lon="-86.18767">
        <ele>188.378739</ele>
        <time>2026-05-14T13:30:53.000Z</time>
      </trkpt>
      <trkpt lat="42.39417" lon="-86.187654">
        <ele>188.375294</ele>
        <time>2026-05-14T13:30:55.000Z</time>
      </trkpt>
      <trkpt lat="42.39405" lon="-86.187649">
        <ele>188.373263</ele>
        <time>2026-05-14T13:30:56.000Z</time>
      </trkpt>
      <trkpt lat="42.393449" lon="-86.187648">
        <ele>188.362324</ele>
        <time>2026-05-14T13:31:03.000Z</time>
      </trkpt>
      <trkpt lat="42.393413" lon="-86.187634">
        <ele>188.361561</ele>
        <time>2026-05-14T13:31:03.000Z</time>
      </trkpt>
      <trkpt lat="42.392564" lon="-86.187615">
        <ele>188.402569</ele>
        <time>2026-05-14T13:31:12.000Z</time>
      </trkpt>
      <trkpt lat="42.391508" lon="-86.18758">
        <ele>188.614979</ele>
        <time>2026-05-14T13:31:24.000Z</time>
      </trkpt>
      <trkpt lat="42.389553" lon="-86.187522">
        <ele>188.795416</ele>
        <time>2026-05-14T13:31:46.000Z</time>
      </trkpt>
      <trkpt lat="42.387236" lon="-86.187468">
        <ele>189.10638</ele>
        <time>2026-05-14T13:32:12.000Z</time>
      </trkpt>
      <trkpt lat="42.386041" lon="-86.187445">
        <ele>189.857919</ele>
        <time>2026-05-14T13:32:25.000Z</time>
      </trkpt>
      <trkpt lat="42.385024" lon="-86.187424">
        <ele>190.35477</ele>
        <time>2026-05-14T13:32:36.000Z</time>
      </trkpt>
      <trkpt lat="42.384344" lon="-86.187403">
        <ele>190.62563</ele>
        <time>2026-05-14T13:32:44.000Z</time>
      </trkpt>
      <trkpt lat="42.380284" lon="-86.187329">
        <ele>191.124551</ele>
        <time>2026-05-14T13:33:29.000Z</time>
      </trkpt>
      <trkpt lat="42.379147" lon="-86.187308">
        <ele>191.297229</ele>
        <time>2026-05-14T13:33:42.000Z</time>
      </trkpt>
      <trkpt lat="42.376482" lon="-86.1873">
        <ele>191.66901</ele>
        <time>2026-05-14T13:34:12.000Z</time>
      </trkpt>
      <trkpt lat="42.37617" lon="-86.1873">
        <ele>191.644638</ele>
        <time>2026-05-14T13:34:15.000Z</time>
      </trkpt>
      <trkpt lat="42.375139" lon="-86.187304">
        <ele>191.566771</ele>
        <time>2026-05-14T13:34:26.000Z</time>
      </trkpt>
      <trkpt lat="42.373196" lon="-86.18731">
        <ele>191.012626</ele>
        <time>2026-05-14T13:34:48.000Z</time>
      </trkpt>
      <trkpt lat="42.372381" lon="-86.187301">
        <ele>190.91135</ele>
        <time>2026-05-14T13:34:57.000Z</time>
      </trkpt>
      <trkpt lat="42.369344" lon="-86.187355">
        <ele>190.614262</ele>
        <time>2026-05-14T13:35:31.000Z</time>
      </trkpt>
      <trkpt lat="42.369081" lon="-86.187341">
        <ele>190.527043</ele>
        <time>2026-05-14T13:35:34.000Z</time>
      </trkpt>
      <trkpt lat="42.368866" lon="-86.187355">
        <ele>190.458856</ele>
        <time>2026-05-14T13:35:36.000Z</time>
      </trkpt>
      <trkpt lat="42.365265" lon="-86.187337">
        <ele>189.825359</ele>
        <time>2026-05-14T13:36:16.000Z</time>
      </trkpt>
      <trkpt lat="42.364674" lon="-86.187334">
        <ele>190.220146</ele>
        <time>2026-05-14T13:36:23.000Z</time>
      </trkpt>
      <trkpt lat="42.364055" lon="-86.187336">
        <ele>190.618859</ele>
        <time>2026-05-14T13:36:30.000Z</time>
      </trkpt>
      <trkpt lat="42.362769" lon="-86.187349">
        <ele>191.108315</ele>
        <time>2026-05-14T13:36:44.000Z</time>
      </trkpt>
      <trkpt lat="42.360724" lon="-86.187323">
        <ele>190.993741</ele>
        <time>2026-05-14T13:37:07.000Z</time>
      </trkpt>
      <trkpt lat="42.359378" lon="-86.187322">
        <ele>191.400645</ele>
        <time>2026-05-14T13:37:22.000Z</time>
      </trkpt>
      <trkpt lat="42.358528" lon="-86.18731">
        <ele>191.657057</ele>
        <time>2026-05-14T13:37:31.000Z</time>
      </trkpt>
      <trkpt lat="42.356345" lon="-86.187303">
        <ele>190.159865</ele>
        <time>2026-05-14T13:37:55.000Z</time>
      </trkpt>
      <trkpt lat="42.355273" lon="-86.187335">
        <ele>188.437137</ele>
        <time>2026-05-14T13:38:07.000Z</time>
      </trkpt>
      <trkpt lat="42.354823" lon="-86.187416">
        <ele>188.064773</ele>
        <time>2026-05-14T13:38:12.000Z</time>
      </trkpt>
      <trkpt lat="42.35452" lon="-86.187518">
        <ele>188.030638</ele>
        <time>2026-05-14T13:38:15.000Z</time>
      </trkpt>
      <trkpt lat="42.354222" lon="-86.187633">
        <ele>187.999267</ele>
        <time>2026-05-14T13:38:18.000Z</time>
      </trkpt>
      <trkpt lat="42.353706" lon="-86.187862">
        <ele>187.941482</ele>
        <time>2026-05-14T13:38:24.000Z</time>
      </trkpt>
      <trkpt lat="42.353033" lon="-86.188095">
        <ele>188.131604</ele>
        <time>2026-05-14T13:38:32.000Z</time>
      </trkpt>
      <trkpt lat="42.35283" lon="-86.188163">
        <ele>188.303518</ele>
        <time>2026-05-14T13:38:34.000Z</time>
      </trkpt>
      <trkpt lat="42.352658" lon="-86.188201">
        <ele>188.445596</ele>
        <time>2026-05-14T13:38:36.000Z</time>
      </trkpt>
      <trkpt lat="42.351946" lon="-86.188236">
        <ele>189.006313</ele>
        <time>2026-05-14T13:38:44.000Z</time>
      </trkpt>
      <trkpt lat="42.351127" lon="-86.18822">
        <ele>189.44993</ele>
        <time>2026-05-14T13:38:53.000Z</time>
      </trkpt>
      <trkpt lat="42.349555" lon="-86.188185">
        <ele>190.001239</ele>
        <time>2026-05-14T13:39:10.000Z</time>
      </trkpt>
      <trkpt lat="42.348909" lon="-86.188193">
        <ele>190.483752</ele>
        <time>2026-05-14T13:39:17.000Z</time>
      </trkpt>
      <trkpt lat="42.347081" lon="-86.188181">
        <ele>191.164869</ele>
        <time>2026-05-14T13:39:37.000Z</time>
      </trkpt>
      <trkpt lat="42.346841" lon="-86.188171">
        <ele>191.150314</ele>
        <time>2026-05-14T13:39:40.000Z</time>
      </trkpt>
      <trkpt lat="42.346285" lon="-86.188166">
        <ele>191.116488</ele>
        <time>2026-05-14T13:39:46.000Z</time>
      </trkpt>
      <trkpt lat="42.346294" lon="-86.187372">
        <ele>191.200776</ele>
        <time>2026-05-14T13:39:53.000Z</time>
      </trkpt>
      <trkpt lat="42.346292" lon="-86.18707">
        <ele>191.249409</ele>
        <time>2026-05-14T13:39:55.000Z</time>
      </trkpt>
      <trkpt lat="42.346298" lon="-86.186626">
        <ele>191.319892</ele>
        <time>2026-05-14T13:39:59.000Z</time>
      </trkpt>
      <trkpt lat="42.346299" lon="-86.18607">
        <ele>191.40826</ele>
        <time>2026-05-14T13:40:04.000Z</time>
      </trkpt>
      <trkpt lat="42.346294" lon="-86.185336">
        <ele>191.687759</ele>
        <time>2026-05-14T13:40:10.000Z</time>
      </trkpt>
      <trkpt lat="42.346303" lon="-86.184544">
        <ele>192.504775</ele>
        <time>2026-05-14T13:40:17.000Z</time>
      </trkpt>
      <trkpt lat="42.346342" lon="-86.179342">
        <ele>197.322021</ele>
        <time>2026-05-14T13:41:00.000Z</time>
      </trkpt>
      <trkpt lat="42.34636" lon="-86.17766">
        <ele>198.179735</ele>
        <time>2026-05-14T13:41:14.000Z</time>
      </trkpt>
      <trkpt lat="42.346358" lon="-86.177607">
        <ele>198.194359</ele>
        <time>2026-05-14T13:41:14.000Z</time>
      </trkpt>
      <trkpt lat="42.346376" lon="-86.176496">
        <ele>198.495392</ele>
        <time>2026-05-14T13:41:23.000Z</time>
      </trkpt>
      <trkpt lat="42.346379" lon="-86.176189">
        <ele>198.581547</ele>
        <time>2026-05-14T13:41:26.000Z</time>
      </trkpt>
      <trkpt lat="42.346434" lon="-86.173863">
        <ele>198.941525</ele>
        <time>2026-05-14T13:41:45.000Z</time>
      </trkpt>
      <trkpt lat="42.346436" lon="-86.173633">
        <ele>198.970777</ele>
        <time>2026-05-14T13:41:47.000Z</time>
      </trkpt>
      <trkpt lat="42.346459" lon="-86.169572">
        <ele>200.131627</ele>
        <time>2026-05-14T13:42:20.000Z</time>
      </trkpt>
      <trkpt lat="42.346453" lon="-86.169023">
        <ele>200.280543</ele>
        <time>2026-05-14T13:42:25.000Z</time>
      </trkpt>
      <trkpt lat="42.346446" lon="-86.16787">
        <ele>200.186829</ele>
        <time>2026-05-14T13:42:34.000Z</time>
      </trkpt>
      <trkpt lat="42.346439" lon="-86.167838">
        <ele>200.172535</ele>
        <time>2026-05-14T13:42:34.000Z</time>
      </trkpt>
      <trkpt lat="42.348956" lon="-86.167848">
        <ele>198.80995</ele>
        <time>2026-05-14T13:43:02.000Z</time>
      </trkpt>
      <trkpt lat="42.351205" lon="-86.167866">
        <ele>198.309579</ele>
        <time>2026-05-14T13:43:27.000Z</time>
      </trkpt>
      <trkpt lat="42.352844" lon="-86.167875">
        <ele>198.111779</ele>
        <time>2026-05-14T13:43:45.000Z</time>
      </trkpt>
      <trkpt lat="42.353365" lon="-86.167879">
        <ele>198.068503</ele>
        <time>2026-05-14T13:43:51.000Z</time>
      </trkpt>
      <trkpt lat="42.353422" lon="-86.167878">
        <ele>198.066637</ele>
        <time>2026-05-14T13:43:52.000Z</time>
      </trkpt>
      <trkpt lat="42.353692" lon="-86.167877">
        <ele>198.058779</ele>
        <time>2026-05-14T13:43:55.000Z</time>
      </trkpt>
      <trkpt lat="42.358086" lon="-86.167885">
        <ele>198.01887</ele>
        <time>2026-05-14T13:44:44.000Z</time>
      </trkpt>
      <trkpt lat="42.36087" lon="-86.167905">
        <ele>197.99887</ele>
        <time>2026-05-14T13:45:15.000Z</time>
      </trkpt>
      <trkpt lat="42.361299" lon="-86.167904">
        <ele>197.85947</ele>
        <time>2026-05-14T13:45:20.000Z</time>
      </trkpt>
      <trkpt lat="42.364653" lon="-86.167914">
        <ele>195.898309</ele>
        <time>2026-05-14T13:45:57.000Z</time>
      </trkpt>
      <trkpt lat="42.36642" lon="-86.167907">
        <ele>195.475793</ele>
        <time>2026-05-14T13:46:17.000Z</time>
      </trkpt>
      <trkpt lat="42.368947" lon="-86.167917">
        <ele>196.874641</ele>
        <time>2026-05-14T13:46:45.000Z</time>
      </trkpt>
      <trkpt lat="42.369882" lon="-86.167911">
        <ele>197.210516</ele>
        <time>2026-05-14T13:46:55.000Z</time>
      </trkpt>
      <trkpt lat="42.371482" lon="-86.167896">
        <ele>197.056459</ele>
        <time>2026-05-14T13:47:13.000Z</time>
      </trkpt>
      <trkpt lat="42.372331" lon="-86.167911">
        <ele>196.422219</ele>
        <time>2026-05-14T13:47:22.000Z</time>
      </trkpt>
      <trkpt lat="42.373017" lon="-86.167906">
        <ele>195.836806</ele>
        <time>2026-05-14T13:47:30.000Z</time>
      </trkpt>
      <trkpt lat="42.374689" lon="-86.167902">
        <ele>192.667451</ele>
        <time>2026-05-14T13:47:49.000Z</time>
      </trkpt>
      <trkpt lat="42.375259" lon="-86.167878">
        <ele>192.576059</ele>
        <time>2026-05-14T13:47:55.000Z</time>
      </trkpt>
      <trkpt lat="42.375293" lon="-86.167071">
        <ele>192.581248</ele>
        <time>2026-05-14T13:48:02.000Z</time>
      </trkpt>
      <trkpt lat="42.375324" lon="-86.162227">
        <ele>196.794981</ele>
        <time>2026-05-14T13:48:42.000Z</time>
      </trkpt>
      <trkpt lat="42.375318" lon="-86.162104">
        <ele>196.917582</ele>
        <time>2026-05-14T13:48:43.000Z</time>
      </trkpt>
      <trkpt lat="42.375337" lon="-86.15949">
        <ele>198.59889</ele>
        <time>2026-05-14T13:49:04.000Z</time>
      </trkpt>
      <trkpt lat="42.375358" lon="-86.155276">
        <ele>200.156578</ele>
        <time>2026-05-14T13:49:39.000Z</time>
      </trkpt>
      <trkpt lat="42.375361" lon="-86.154761">
        <ele>200.432861</ele>
        <time>2026-05-14T13:49:43.000Z</time>
      </trkpt>
      <trkpt lat="42.375381" lon="-86.151628">
        <ele>203.680325</ele>
        <time>2026-05-14T13:50:09.000Z</time>
      </trkpt>
      <trkpt lat="42.375381" lon="-86.151331">
        <ele>204.042468</ele>
        <time>2026-05-14T13:50:11.000Z</time>
      </trkpt>
      <trkpt lat="42.375397" lon="-86.150675">
        <ele>204.831745</ele>
        <time>2026-05-14T13:50:16.000Z</time>
      </trkpt>
      <trkpt lat="42.375417" lon="-86.148632">
        <ele>206.685804</ele>
        <time>2026-05-14T13:50:33.000Z</time>
      </trkpt>
      <trkpt lat="42.37549" lon="-86.129285">
        <ele>206.118712</ele>
        <time>2026-05-14T13:53:12.000Z</time>
      </trkpt>
      <trkpt lat="42.378553" lon="-86.129337">
        <ele>205.946643</ele>
        <time>2026-05-14T13:53:46.000Z</time>
      </trkpt>
      <trkpt lat="42.382075" lon="-86.129378">
        <ele>204.921243</ele>
        <time>2026-05-14T13:54:25.000Z</time>
      </trkpt>
      <trkpt lat="42.382584" lon="-86.129394">
        <ele>204.647061</ele>
        <time>2026-05-14T13:54:31.000Z</time>
      </trkpt>
      <trkpt lat="42.38372" lon="-86.129408">
        <ele>203.86525</ele>
        <time>2026-05-14T13:54:44.000Z</time>
      </trkpt>
      <trkpt lat="42.384032" lon="-86.12942">
        <ele>203.654756</ele>
        <time>2026-05-14T13:54:47.000Z</time>
      </trkpt>
      <trkpt lat="42.384687" lon="-86.129412">
        <ele>204.047458</ele>
        <time>2026-05-14T13:54:54.000Z</time>
      </trkpt>
      <trkpt lat="42.386919" lon="-86.129433">
        <ele>206.479631</ele>
        <time>2026-05-14T13:55:19.000Z</time>
      </trkpt>
      <trkpt lat="42.387289" lon="-86.129448">
        <ele>206.876296</ele>
        <time>2026-05-14T13:55:23.000Z</time>
      </trkpt>
      <trkpt lat="42.388773" lon="-86.129451">
        <ele>207.947552</ele>
        <time>2026-05-14T13:55:40.000Z</time>
      </trkpt>
      <trkpt lat="42.389877" lon="-86.129461">
        <ele>208.297103</ele>
        <time>2026-05-14T13:55:52.000Z</time>
      </trkpt>
      <trkpt lat="42.389873" lon="-86.131638">
        <ele>207.784116</ele>
        <time>2026-05-14T13:56:10.000Z</time>
      </trkpt>
      <trkpt lat="42.389872" lon="-86.13274">
        <ele>207.288451</ele>
        <time>2026-05-14T13:56:19.000Z</time>
      </trkpt>
      <trkpt lat="42.389862" lon="-86.133312">
        <ele>207.033633</ele>
        <time>2026-05-14T13:56:24.000Z</time>
      </trkpt>
      <trkpt lat="42.389839" lon="-86.14226">
        <ele>206.293081</ele>
        <time>2026-05-14T13:57:37.000Z</time>
      </trkpt>
      <trkpt lat="42.389841" lon="-86.144906">
        <ele>204.819145</ele>
        <time>2026-05-14T13:57:59.000Z</time>
      </trkpt>
      <trkpt lat="42.389849" lon="-86.144991">
        <ele>204.752441</ele>
        <time>2026-05-14T13:58:00.000Z</time>
      </trkpt>
      <trkpt lat="42.389846" lon="-86.146543">
        <ele>203.652586</ele>
        <time>2026-05-14T13:58:13.000Z</time>
      </trkpt>
      <trkpt lat="42.389827" lon="-86.148672">
        <ele>203.02648</ele>
        <time>2026-05-14T13:58:30.000Z</time>
      </trkpt>
      <trkpt lat="42.389782" lon="-86.151872">
        <ele>203.577226</ele>
        <time>2026-05-14T13:58:56.000Z</time>
      </trkpt>
      <trkpt lat="42.389819" lon="-86.152993">
        <ele>203.611342</ele>
        <time>2026-05-14T13:59:05.000Z</time>
      </trkpt>
      <trkpt lat="42.389781" lon="-86.154044">
        <ele>203.384307</ele>
        <time>2026-05-14T13:59:14.000Z</time>
      </trkpt>
      <trkpt lat="42.389746" lon="-86.161709">
        <ele>200.257055</ele>
        <time>2026-05-14T14:00:17.000Z</time>
      </trkpt>
      <trkpt lat="42.389784" lon="-86.163252">
        <ele>199.678077</ele>
        <time>2026-05-14T14:00:30.000Z</time>
      </trkpt>
      <trkpt lat="42.38979" lon="-86.164333">
        <ele>199.171017</ele>
        <time>2026-05-14T14:00:39.000Z</time>
      </trkpt>
      <trkpt lat="42.389769" lon="-86.165174">
        <ele>198.778305</ele>
        <time>2026-05-14T14:00:46.000Z</time>
      </trkpt>
      <trkpt lat="42.389714" lon="-86.167978">
        <ele>197.339195</ele>
        <time>2026-05-14T14:01:09.000Z</time>
      </trkpt>
      <trkpt lat="42.389668" lon="-86.173761">
        <ele>194.769747</ele>
        <time>2026-05-14T14:01:56.000Z</time>
      </trkpt>
      <trkpt lat="42.389649" lon="-86.17979">
        <ele>191.263615</ele>
        <time>2026-05-14T14:02:46.000Z</time>
      </trkpt>
      <trkpt lat="42.389617" lon="-86.18068">
        <ele>190.714956</ele>
        <time>2026-05-14T14:02:53.000Z</time>
      </trkpt>
      <trkpt lat="42.389584" lon="-86.182964">
        <ele>189.395415</ele>
        <time>2026-05-14T14:03:12.000Z</time>
      </trkpt>
      <trkpt lat="42.389573" lon="-86.184098">
        <ele>189.133203</ele>
        <time>2026-05-14T14:03:21.000Z</time>
      </trkpt>
      <trkpt lat="42.389558" lon="-86.187518">
        <ele>188.876811</ele>
        <time>2026-05-14T14:03:49.000Z</time>
      </trkpt>
      <trkpt lat="42.391518" lon="-86.187588">
        <ele>188.653115</ele>
        <time>2026-05-14T14:04:11.000Z</time>
      </trkpt>
      <trkpt lat="42.392569" lon="-86.187618">
        <ele>188.419517</ele>
        <time>2026-05-14T14:04:23.000Z</time>
      </trkpt>
      <trkpt lat="42.393413" lon="-86.187629">
        <ele>188.31702</ele>
        <time>2026-05-14T14:04:32.000Z</time>
      </trkpt>
      <trkpt lat="42.393448" lon="-86.187645">
        <ele>188.322013</ele>
        <time>2026-05-14T14:04:32.000Z</time>
      </trkpt>
      <trkpt lat="42.394065" lon="-86.187664">
        <ele>188.392697</ele>
        <time>2026-05-14T14:04:39.000Z</time>
      </trkpt>
      <trkpt lat="42.394169" lon="-86.187652">
        <ele>188.405853</ele>
        <time>2026-05-14T14:04:40.000Z</time>
      </trkpt>
      <trkpt lat="42.394363" lon="-86.187656">
        <ele>188.428139</ele>
        <time>2026-05-14T14:04:42.000Z</time>
      </trkpt>
      <trkpt lat="42.394444" lon="-86.187659">
        <ele>188.437375</ele>
        <time>2026-05-14T14:04:43.000Z</time>
      </trkpt>
      <trkpt lat="42.395255" lon="-86.187674">
        <ele>188.587524</ele>
        <time>2026-05-14T14:04:52.000Z</time>
      </trkpt>
      <trkpt lat="42.395683" lon="-86.187676">
        <ele>188.72513</ele>
        <time>2026-05-14T14:04:57.000Z</time>
      </trkpt>
      <trkpt lat="42.396011" lon="-86.187687">
        <ele>188.827144</ele>
        <time>2026-05-14T14:05:01.000Z</time>
      </trkpt>
      <trkpt lat="42.396907" lon="-86.187701">
        <ele>189.070542003</ele>
        <time>2026-05-14T14:05:11.000Z</time>
      </trkpt>
      <trkpt lat="42.397294" lon="-86.187707">
        <ele>189.175670273</ele>
        <time>2026-05-14T14:05:15.000Z</time>
      </trkpt>
      <trkpt lat="42.398109" lon="-86.18773">
        <ele>189.397097994</ele>
        <time>2026-05-14T14:05:24.000Z</time>
      </trkpt>
      <trkpt lat="42.399125" lon="-86.18775">
        <ele>189.673104729</ele>
        <time>2026-05-14T14:05:35.000Z</time>
      </trkpt>
    </trkseg>
  </trk>
</gpx>

<!--
Performance optimized by W3 Total Cache. Learn more: https://www.boldgrid.com/w3-total-cache/?utm_source=w3tc&utm_medium=footer_comment&utm_campaign=free_plugin

Page Caching using Disk: Enhanced{w3tc_pagecache_reject_reason} 

Served from: www.aquabike.world @ 2026-05-10 16:14:12 by W3 Total Cache
-->